Time;durP1;ratioP1;P1;durP2;ratioP2;P2;SDS_P1;SDS_P2;PMS_P1;PMS_P2;Temp;Humidity;BMP_temperature;BMP_pressure;BME280_temperature;BME280_humidity;BME280_pressure;Samples;Min_cycle;Max_cycle;Signal;HPM_P1;HPM_P2
2023/09/11 00:00:04;;;;;;;10.00;8.53;;;25.30;99.90;;;;;;5019769;28;20447;-57
2023/09/11 00:02:31;;;;;;;9.83;8.83;;;25.30;99.90;;;;;;5015785;28;20998;-56
2023/09/11 00:04:58;;;;;;;10.97;8.23;;;25.30;99.90;;;;;;5012808;28;20482;-55
2023/09/11 00:07:26;;;;;;;9.37;8.23;;;25.30;99.90;;;;;;5017422;28;20454;-56
2023/09/11 00:09:53;;;;;;;10.83;8.67;;;25.30;99.90;;;;;;5014990;28;21125;-54
2023/09/11 00:12:19;;;;;;;10.33;7.77;;;25.30;99.90;;;;;;5016353;28;20461;-52
2023/09/11 00:14:46;;;;;;;8.93;8.13;;;25.30;99.90;;;;;;5018823;28;20954;-52
2023/09/11 00:17:13;;;;;;;8.73;7.87;;;25.30;99.90;;;;;;5018359;28;20481;-58
2023/09/11 00:19:39;;;;;;;9.17;8.27;;;25.30;99.90;;;;;;5013753;28;20458;-58
2023/09/11 00:22:06;;;;;;;8.67;7.87;;;25.30;99.90;;;;;;5018051;28;20537;-54
2023/09/11 00:24:34;;;;;;;8.73;8.03;;;25.30;99.90;;;;;;5015154;28;20850;-57
2023/09/11 00:27:01;;;;;;;9.40;8.40;;;25.30;99.90;;;;;;5015191;28;20454;-57
2023/09/11 00:29:28;;;;;;;8.70;7.80;;;25.30;99.90;;;;;;5016932;28;20469;-54
2023/09/11 00:31:55;;;;;;;9.00;8.13;;;25.30;99.90;;;;;;5016388;28;20970;-56
2023/09/11 00:34:21;;;;;;;9.20;8.40;;;25.30;99.90;;;;;;5014801;28;20470;-58
2023/09/11 00:36:48;;;;;;;9.37;8.47;;;25.30;99.90;;;;;;5014398;28;20467;-49
2023/09/11 00:39:15;;;;;;;9.83;8.93;;;25.30;99.90;;;;;;5013638;28;20825;-57
2023/09/11 00:41:43;;;;;;;8.83;8.03;;;25.30;99.90;;;;;;5015986;28;20469;-52
2023/09/11 00:44:10;;;;;;;10.30;7.97;;;25.30;99.90;;;;;;5012662;28;20508;-52
2023/09/11 00:46:37;;;;;;;10.23;9.33;;;25.30;99.90;;;;;;5013202;28;20465;-56
2023/09/11 00:49:04;;;;;;;9.10;8.30;;;25.30;99.90;;;;;;5014445;28;20475;-54
2023/09/11 00:51:31;;;;;;;8.53;7.73;;;25.30;99.90;;;;;;5009387;28;20488;-53
2023/09/11 00:53:57;;;;;;;10.43;7.93;;;25.30;99.90;;;;;;5015471;28;20467;-60
2023/09/11 00:56:24;;;;;;;8.37;7.53;;;25.20;99.90;;;;;;5010838;28;20466;-50
2023/09/11 00:58:53;;;;;;;8.30;7.60;;;25.20;99.90;;;;;;5017087;28;20545;-56
2023/09/11 01:01:22;;;;;;;10.17;7.90;;;25.30;99.90;;;;;;5014659;28;20482;-53
2023/09/11 01:03:50;;;;;;;11.30;8.23;;;25.20;99.90;;;;;;5013457;28;20935;-53
2023/09/11 01:06:17;;;;;;;10.00;9.00;;;25.20;99.90;;;;;;5011312;28;20831;-54
2023/09/11 01:08:43;;;;;;;9.73;8.57;;;25.20;99.90;;;;;;5011303;28;20473;-53
2023/09/11 01:11:10;;;;;;;8.50;7.50;;;25.20;99.90;;;;;;5010271;28;20482;-52
2023/09/11 01:13:37;;;;;;;8.77;7.87;;;25.20;99.90;;;;;;5006792;28;20477;-55
2023/09/11 01:16:18;;;;;;;8.37;7.57;;;25.20;99.90;;;;;;5008959;28;20455;-56
2023/09/11 01:18:51;;;;;;;8.07;7.37;;;25.20;99.90;;;;;;5012302;28;20474;-56
2023/09/11 01:21:43;;;;;;;9.77;8.80;;;25.20;99.90;;;;;;5008132;28;20459;-52
2023/09/11 01:24:28;;;;;;;9.20;8.40;;;25.20;99.90;;;;;;5014865;28;20814;-60
2023/09/11 01:27:27;;;;;;;11.70;8.47;;;25.20;99.90;;;;;;5006809;28;20473;-52
2023/09/11 01:29:58;;;;;;;8.37;7.57;;;25.20;99.90;;;;;;5009687;28;20451;-52
2023/09/11 01:32:26;;;;;;;8.17;7.57;;;25.20;99.90;;;;;;5013953;28;20482;-48
2023/09/11 01:34:53;;;;;;;9.67;8.70;;;25.20;99.90;;;;;;5009691;28;20935;-57
2023/09/11 01:37:20;;;;;;;9.13;8.33;;;25.20;99.90;;;;;;5006179;28;21058;-57
2023/09/11 01:39:47;;;;;;;9.53;8.63;;;25.20;99.90;;;;;;5010347;28;20531;-51
2023/09/11 01:42:21;;;;;;;8.90;8.10;;;25.20;99.90;;;;;;5011773;28;20809;-52
2023/09/11 01:44:50;;;;;;;11.10;8.27;;;25.20;99.90;;;;;;5015806;28;20592;-57
2023/09/11 01:47:22;;;;;;;8.17;7.27;;;25.20;99.90;;;;;;5011838;28;20889;-52
2023/09/11 01:49:50;;;;;;;8.87;8.17;;;25.20;99.90;;;;;;5012165;28;21201;-54
2023/09/11 01:52:17;;;;;;;8.57;7.87;;;25.20;99.90;;;;;;5013817;28;20459;-52
2023/09/11 01:54:44;;;;;;;8.20;7.60;;;25.20;99.90;;;;;;5011054;28;21043;-53
2023/09/11 01:57:11;;;;;;;9.67;8.87;;;25.20;99.90;;;;;;5010479;28;20725;-56
2023/09/11 01:59:38;;;;;;;9.07;8.30;;;25.10;99.90;;;;;;5012575;28;20442;-54
2023/09/11 02:02:06;;;;;;;8.03;7.43;;;25.20;99.90;;;;;;5004292;28;20467;-55
2023/09/11 02:04:34;;;;;;;10.43;9.40;;;25.20;99.90;;;;;;5003793;28;20830;-54
2023/09/11 02:07:00;;;;;;;8.77;7.97;;;25.20;99.90;;;;;;5004163;28;20848;-53
2023/09/11 02:09:27;;;;;;;8.57;7.93;;;25.20;99.90;;;;;;5006089;28;20463;-50
2023/09/11 02:11:54;;;;;;;8.60;7.90;;;25.20;99.90;;;;;;5001343;28;20487;-54
2023/09/11 02:14:20;;;;;;;9.37;8.50;;;25.20;99.90;;;;;;5004670;28;20469;-52
2023/09/11 02:16:47;;;;;;;8.60;8.00;;;25.10;99.90;;;;;;5003872;28;20997;-59
2023/09/11 02:19:14;;;;;;;9.03;8.20;;;25.10;99.90;;;;;;5003302;28;20478;-56
2023/09/11 02:21:42;;;;;;;8.90;8.10;;;25.10;99.90;;;;;;5009895;28;20477;-58
2023/09/11 02:24:09;;;;;;;9.80;7.40;;;25.10;99.90;;;;;;5018848;28;20449;-53
2023/09/11 02:26:35;;;;;;;8.57;7.70;;;25.10;99.90;;;;;;5014113;28;20462;-54
2023/09/11 02:29:02;;;;;;;8.77;7.97;;;25.10;99.90;;;;;;5012698;28;20962;-58
2023/09/11 02:31:29;;;;;;;10.73;7.77;;;25.10;99.90;;;;;;5013985;28;20482;-58
2023/09/11 02:33:55;;;;;;;8.47;7.77;;;25.10;99.90;;;;;;5016218;28;20458;-55
2023/09/11 02:36:22;;;;;;;8.93;8.13;;;25.10;99.90;;;;;;5011492;28;20470;-56
2023/09/11 02:38:50;;;;;;;8.27;7.67;;;25.10;99.90;;;;;;5012571;28;20470;-53
2023/09/11 02:41:17;;;;;;;8.97;8.10;;;25.10;99.90;;;;;;5014789;28;20473;-56
2023/09/11 02:43:43;;;;;;;9.37;8.57;;;25.10;99.90;;;;;;5013557;28;20463;-55
2023/09/11 02:46:10;;;;;;;8.17;7.37;;;25.10;99.90;;;;;;5014665;28;20919;-55
2023/09/11 02:48:37;;;;;;;9.03;8.30;;;25.10;99.90;;;;;;5009815;28;20459;-56
2023/09/11 02:51:04;;;;;;;10.63;7.70;;;25.10;99.90;;;;;;5006865;28;20761;-55
2023/09/11 02:53:31;;;;;;;8.40;7.70;;;25.10;99.90;;;;;;5009604;28;20462;-56
2023/09/11 02:55:59;;;;;;;9.03;7.97;;;25.10;99.90;;;;;;5012532;28;20466;-56
2023/09/11 02:58:25;;;;;;;9.03;8.13;;;25.10;99.90;;;;;;5010291;28;20984;-51
2023/09/11 03:00:52;;;;;;;7.27;6.57;;;25.10;99.90;;;;;;5013252;28;20470;-53
2023/09/11 03:03:19;;;;;;;9.00;8.17;;;25.10;99.90;;;;;;5007880;28;20458;-54
2023/09/11 03:05:46;;;;;;;8.40;7.60;;;25.10;99.90;;;;;;5012529;28;20458;-56
2023/09/11 03:08:12;;;;;;;8.33;7.53;;;25.10;99.90;;;;;;5010872;28;20830;-56
2023/09/11 03:10:39;;;;;;;8.83;7.67;;;25.10;99.90;;;;;;5008216;28;20481;-52
2023/09/11 03:13:07;;;;;;;8.23;7.10;;;25.10;99.90;;;;;;5009366;28;20464;-49
2023/09/11 03:15:34;;;;;;;7.17;6.53;;;25.10;99.90;;;;;;5010923;28;20882;-52
2023/09/11 03:18:01;;;;;;;8.73;7.93;;;25.10;99.90;;;;;;5006380;28;20464;-54
2023/09/11 03:20:27;;;;;;;7.70;7.10;;;25.10;99.90;;;;;;5004056;28;20847;-56
2023/09/11 03:22:54;;;;;;;10.03;8.70;;;25.10;99.90;;;;;;5003217;28;20478;-53
2023/09/11 03:25:21;;;;;;;7.70;7.00;;;25.10;99.90;;;;;;5002318;28;20458;-55
2023/09/11 03:27:48;;;;;;;8.10;7.30;;;25.10;99.90;;;;;;5002086;28;20470;-52
2023/09/11 03:30:16;;;;;;;8.20;7.50;;;25.10;99.90;;;;;;5002771;28;20459;-55
2023/09/11 03:32:43;;;;;;;7.20;6.60;;;25.10;99.90;;;;;;5002339;28;21073;-57
2023/09/11 03:35:09;;;;;;;9.00;8.13;;;25.10;99.90;;;;;;5002249;28;20455;-55
2023/09/11 03:37:36;;;;;;;8.33;7.50;;;25.10;99.90;;;;;;5005230;28;20484;-56
2023/09/11 03:40:07;;;;;;;8.23;7.63;;;25.10;99.90;;;;;;5009394;28;20459;-60
2023/09/11 03:42:33;;;;;;;8.07;7.37;;;25.10;99.90;;;;;;5004924;28;20558;-57
2023/09/11 03:45:01;;;;;;;7.53;7.00;;;25.10;99.90;;;;;;5009070;28;20466;-54
2023/09/11 03:47:29;;;;;;;8.13;7.43;;;25.10;99.90;;;;;;5007403;28;20463;-53
2023/09/11 03:49:55;;;;;;;7.90;7.20;;;25.10;99.90;;;;;;5006439;28;20473;-49
2023/09/11 03:52:22;;;;;;;8.57;7.87;;;25.10;99.90;;;;;;5011172;28;21010;-52
2023/09/11 03:54:49;;;;;;;8.67;7.83;;;25.10;99.90;;;;;;5010012;28;20475;-57
2023/09/11 03:57:15;;;;;;;7.77;6.97;;;25.10;99.90;;;;;;5015001;28;20502;-58
2023/09/11 03:59:42;;;;;;;8.20;7.60;;;25.10;99.90;;;;;;5010921;28;20467;-53
2023/09/11 04:02:09;;;;;;;9.07;7.90;;;25.00;99.90;;;;;;5012470;28;20478;-56
2023/09/11 04:04:38;;;;;;;10.47;8.23;;;25.10;99.90;;;;;;5009315;28;21099;-55
2023/09/11 04:07:04;;;;;;;9.13;8.43;;;25.00;99.90;;;;;;5009148;28;20485;-55
2023/09/11 04:09:32;;;;;;;8.00;7.30;;;25.00;99.90;;;;;;5011132;28;20467;-59
2023/09/11 04:11:59;;;;;;;8.50;7.80;;;25.00;99.90;;;;;;5010081;28;20514;-57
2023/09/11 04:14:26;;;;;;;8.10;7.40;;;25.00;99.90;;;;;;5012965;28;20461;-59
2023/09/11 04:16:52;;;;;;;8.37;7.43;;;25.00;99.90;;;;;;5009348;28;21054;-54
2023/09/11 04:19:19;;;;;;;8.13;7.33;;;25.00;99.90;;;;;;5010683;28;20461;-58
2023/09/11 04:21:47;;;;;;;8.37;7.57;;;25.00;99.90;;;;;;5019415;28;20463;-55
2023/09/11 04:24:14;;;;;;;8.63;7.90;;;25.00;99.90;;;;;;5016331;28;20464;-51
2023/09/11 04:26:41;;;;;;;13.53;8.37;;;25.00;99.90;;;;;;5002668;28;20459;-55
2023/09/11 04:29:11;;;;;;;8.03;7.30;;;25.00;99.90;;;;;;5006114;28;20454;-51
2023/09/11 04:31:38;;;;;;;8.93;8.03;;;25.00;99.90;;;;;;5011206;28;20478;-53
2023/09/11 04:34:04;;;;;;;7.07;6.57;;;25.00;99.90;;;;;;5019152;28;20463;-52
2023/09/11 04:36:31;;;;;;;7.53;6.93;;;25.00;99.90;;;;;;5007513;28;20466;-53
2023/09/11 04:38:59;;;;;;;8.53;7.70;;;25.00;99.90;;;;;;5009592;28;20561;-51
2023/09/11 04:41:26;;;;;;;7.70;6.97;;;25.00;99.90;;;;;;5010661;28;21267;-56
2023/09/11 04:43:53;;;;;;;8.70;7.90;;;25.00;99.90;;;;;;5010647;28;20473;-56
2023/09/11 04:46:20;;;;;;;7.67;6.90;;;25.00;99.90;;;;;;5002293;28;20459;-54
2023/09/11 04:48:46;;;;;;;8.07;7.33;;;25.00;99.90;;;;;;5005460;28;20817;-56
2023/09/11 04:51:13;;;;;;;7.10;6.50;;;25.00;99.90;;;;;;5004314;28;21016;-59
2023/09/11 04:53:40;;;;;;;11.57;7.47;;;25.00;99.90;;;;;;5003255;28;20474;-59
2023/09/11 04:56:11;;;;;;;7.80;7.10;;;25.00;99.90;;;;;;5003711;28;20463;-54
2023/09/11 04:58:38;;;;;;;8.60;7.80;;;25.00;99.90;;;;;;5002515;28;20954;-54
2023/09/11 05:01:05;;;;;;;9.17;8.40;;;25.00;99.90;;;;;;5003210;28;20474;-56
2023/09/11 05:03:31;;;;;;;7.60;6.90;;;25.00;99.90;;;;;;5003363;28;20478;-58
2023/09/11 05:05:59;;;;;;;8.33;7.53;;;25.00;99.90;;;;;;5003648;28;20463;-56
2023/09/11 05:08:25;;;;;;;7.00;6.50;;;25.00;99.90;;;;;;5004114;28;20554;-59
2023/09/11 05:10:52;;;;;;;8.97;8.10;;;25.00;99.90;;;;;;5001596;28;20490;-56
2023/09/11 05:13:20;;;;;;;8.20;7.40;;;25.00;99.90;;;;;;5004946;28;20499;-53
2023/09/11 05:15:48;;;;;;;11.00;8.30;;;25.00;99.90;;;;;;5003792;28;21000;-57
2023/09/11 05:18:15;;;;;;;7.90;7.30;;;25.00;99.90;;;;;;5008570;28;20942;-56
2023/09/11 05:20:44;;;;;;;7.60;6.90;;;25.00;99.90;;;;;;5008955;28;20459;-58
2023/09/11 05:23:11;;;;;;;6.73;6.17;;;25.00;99.90;;;;;;5008222;28;20554;-57
2023/09/11 05:25:38;;;;;;;8.20;7.30;;;25.00;99.90;;;;;;5009788;28;21554;-57
2023/09/11 05:28:05;;;;;;;8.10;7.30;;;25.00;99.90;;;;;;5010357;28;20458;-56
2023/09/11 05:30:33;;;;;;;9.57;8.13;;;25.00;99.90;;;;;;5009241;28;20455;-57
2023/09/11 05:33:00;;;;;;;9.10;6.33;;;25.00;99.90;;;;;;5005219;28;20490;-55
2023/09/11 05:35:26;;;;;;;7.90;7.20;;;25.00;99.90;;;;;;5009328;28;20466;-56
2023/09/11 05:37:53;;;;;;;7.40;6.40;;;25.00;99.90;;;;;;5012295;28;20550;-58
2023/09/11 05:40:20;;;;;;;9.37;8.67;;;25.00;99.90;;;;;;5008173;28;20463;-53
2023/09/11 05:42:47;;;;;;;6.83;6.33;;;25.00;99.90;;;;;;5010058;28;20469;-55
2023/09/11 05:45:13;;;;;;;8.20;6.93;;;25.00;99.90;;;;;;5005037;28;20962;-54
2023/09/11 05:47:42;;;;;;;8.33;7.63;;;25.00;99.90;;;;;;5009029;28;20450;-58
2023/09/11 05:50:09;;;;;;;8.27;7.57;;;24.90;99.90;;;;;;5011715;28;20482;-52
2023/09/11 05:52:36;;;;;;;6.90;6.30;;;25.00;99.90;;;;;;5010009;28;20500;-58
2023/09/11 05:55:03;;;;;;;6.80;6.20;;;25.00;99.90;;;;;;5008837;28;20463;-56
2023/09/11 05:57:30;;;;;;;7.60;6.90;;;25.00;99.90;;;;;;5009926;28;20520;-50
2023/09/11 05:59:56;;;;;;;8.30;7.50;;;24.90;99.90;;;;;;5007799;28;20463;-56
2023/09/11 06:02:23;;;;;;;8.80;6.70;;;25.00;99.90;;;;;;5006628;28;20692;-56
2023/09/11 06:04:51;;;;;;;8.60;7.90;;;24.90;99.90;;;;;;5009493;28;21963;-59
2023/09/11 06:07:19;;;;;;;6.90;6.30;;;24.90;99.90;;;;;;5010638;28;20462;-52
2023/09/11 06:09:45;;;;;;;8.10;7.30;;;24.90;99.90;;;;;;5008859;28;20985;-56
2023/09/11 06:12:12;;;;;;;7.27;6.50;;;24.90;99.90;;;;;;5007174;28;20478;-55
2023/09/11 06:14:39;;;;;;;7.87;6.90;;;24.90;99.90;;;;;;5011245;28;20486;-53
2023/09/11 06:17:06;;;;;;;10.90;9.80;;;24.90;99.90;;;;;;5001539;28;20463;-56
2023/09/11 06:19:32;;;;;;;9.00;8.17;;;24.90;99.90;;;;;;5006218;28;20459;-56
2023/09/11 06:22:00;;;;;;;10.57;7.93;;;24.90;99.90;;;;;;5009181;28;21005;-53
2023/09/11 06:24:27;;;;;;;7.80;7.10;;;24.90;99.90;;;;;;5006661;28;20473;-57
2023/09/11 06:27:03;;;;;;;11.90;7.97;;;24.90;99.90;;;;;;5004307;28;21084;-53
2023/09/11 06:29:30;;;;;;;10.57;8.50;;;24.90;99.90;;;;;;5008678;28;20459;-56
2023/09/11 06:31:57;;;;;;;12.03;8.10;;;24.90;99.90;;;;;;5008248;28;20487;-55
2023/09/11 06:34:24;;;;;;;9.80;7.50;;;24.90;99.90;;;;;;5010761;28;20957;-51
2023/09/11 06:36:52;;;;;;;9.43;7.93;;;24.90;99.90;;;;;;5016571;28;20494;-51
2023/09/11 06:39:20;;;;;;;11.13;7.23;;;24.90;99.90;;;;;;5016737;28;20490;-54
2023/09/11 06:41:47;;;;;;;37.40;10.27;;;24.90;99.90;;;;;;5012302;28;20462;-53
2023/09/11 06:44:14;;;;;;;16.67;7.50;;;25.00;99.90;;;;;;5008471;28;20459;-55
2023/09/11 06:46:40;;;;;;;13.43;8.10;;;25.00;99.90;;;;;;5011013;28;20466;-58
2023/09/11 06:49:07;;;;;;;13.70;8.77;;;25.00;99.90;;;;;;5012611;28;20462;-55
2023/09/11 06:51:34;;;;;;;15.23;8.20;;;25.00;99.90;;;;;;5012743;28;20965;-55
2023/09/11 06:54:03;;;;;;;13.93;8.17;;;25.00;99.90;;;;;;5008020;28;20451;-54
2023/09/11 06:56:31;;;;;;;15.30;8.57;;;25.00;99.90;;;;;;5007980;28;20505;-50
2023/09/11 06:58:58;;;;;;;12.57;7.83;;;25.00;99.90;;;;;;5012809;28;21077;-50
2023/09/11 07:01:25;;;;;;;13.03;8.03;;;25.00;99.90;;;;;;5009827;28;20458;-59
2023/09/11 07:03:51;;;;;;;16.33;7.70;;;25.00;99.90;;;;;;5012409;28;20458;-49
2023/09/11 07:06:19;;;;;;;12.23;8.03;;;25.00;99.90;;;;;;5009190;28;20467;-55
2023/09/11 07:08:46;;;;;;;11.67;7.30;;;25.00;99.90;;;;;;5010874;28;20459;-51
2023/09/11 07:11:17;;;;;;;15.13;6.97;;;25.00;99.90;;;;;;5008082;28;20827;-52
2023/09/11 07:13:45;;;;;;;18.00;7.57;;;25.00;99.90;;;;;;5009602;28;20481;-51
2023/09/11 07:16:12;;;;;;;16.80;8.70;;;25.00;99.90;;;;;;5014274;28;20553;-58
2023/09/11 07:18:39;;;;;;;14.57;8.33;;;25.00;99.90;;;;;;5013448;28;20874;-59
2023/09/11 07:21:05;;;;;;;20.87;9.90;;;25.00;99.90;;;;;;5014006;28;20458;-53
2023/09/11 07:23:33;;;;;;;10.87;7.37;;;25.00;99.90;;;;;;5013817;28;21113;-47
2023/09/11 07:26:00;;;;;;;16.00;8.73;;;25.00;99.90;;;;;;5016063;28;20486;-57
2023/09/11 07:28:27;;;;;;;7.27;6.57;;;25.00;99.90;;;;;;5010289;28;20462;-53
2023/09/11 07:30:55;;;;;;;13.90;8.53;;;25.00;99.90;;;;;;5016539;28;20466;-50
2023/09/11 07:33:22;;;;;;;8.37;7.57;;;25.00;99.90;;;;;;5002101;28;21149;-58
2023/09/11 07:35:49;;;;;;;7.20;6.60;;;25.00;99.90;;;;;;5013916;28;20490;-55
2023/09/11 07:38:16;;;;;;;8.80;6.27;;;25.00;99.90;;;;;;5016641;28;20466;-51
2023/09/11 07:40:43;;;;;;;11.20;7.87;;;25.00;99.90;;;;;;5015498;28;20551;-51
2023/09/11 07:43:11;;;;;;;13.73;7.63;;;25.00;99.90;;;;;;5011869;28;21039;-55
2023/09/11 07:45:37;;;;;;;8.53;6.87;;;25.00;99.90;;;;;;5008776;28;20581;-50
2023/09/11 07:48:06;;;;;;;12.13;7.70;;;25.00;99.90;;;;;;5010723;28;20455;-54
2023/09/11 07:50:33;;;;;;;7.70;6.70;;;25.00;99.90;;;;;;5014023;28;20461;-53
2023/09/11 07:52:59;;;;;;;12.50;8.27;;;25.00;99.90;;;;;;5012530;28;20501;-53
2023/09/11 07:55:26;;;;;;;17.40;7.00;;;25.00;99.90;;;;;;5003789;28;20465;-50
2023/09/11 07:57:53;;;;;;;7.90;7.10;;;25.00;99.90;;;;;;5007745;28;20469;-51
2023/09/11 08:00:20;;;;;;;9.60;7.60;;;25.00;99.90;;;;;;5010057;28;20509;-52
2023/09/11 08:02:48;;;;;;;9.87;7.70;;;25.00;99.90;;;;;;5008760;28;20535;-57
2023/09/11 08:05:17;;;;;;;11.13;6.70;;;25.00;99.90;;;;;;5005614;28;20517;-55
2023/09/11 08:07:43;;;;;;;12.60;8.20;;;25.00;99.90;;;;;;5009373;28;20465;-57
2023/09/11 08:10:10;;;;;;;9.03;7.50;;;25.00;99.90;;;;;;5013587;28;20467;-55
2023/09/11 08:12:37;;;;;;;9.20;8.20;;;25.00;99.90;;;;;;5013215;28;20475;-54
2023/09/11 08:15:05;;;;;;;11.33;7.13;;;25.00;99.90;;;;;;5006620;28;20972;-54
2023/09/11 08:17:32;;;;;;;8.00;6.10;;;25.00;99.90;;;;;;5010746;28;20462;-58
2023/09/11 08:19:58;;;;;;;8.40;6.87;;;25.00;99.90;;;;;;5018447;28;20467;-54
2023/09/11 08:22:26;;;;;;;10.10;6.60;;;25.00;99.90;;;;;;5016575;28;20481;-52
2023/09/11 08:24:53;;;;;;;8.13;7.03;;;25.00;99.90;;;;;;5009557;28;20469;-56
2023/09/11 08:27:20;;;;;;;13.87;8.00;;;25.00;99.90;;;;;;5013872;28;20460;-55
2023/09/11 08:29:47;;;;;;;10.30;7.30;;;25.00;99.90;;;;;;5010310;28;21122;-53
2023/09/11 08:32:14;;;;;;;10.07;7.97;;;25.00;99.90;;;;;;5009660;28;20963;-53
2023/09/11 08:34:40;;;;;;;15.13;7.23;;;25.00;99.90;;;;;;5006416;28;20455;-54
2023/09/11 08:37:08;;;;;;;10.60;6.13;;;25.00;99.90;;;;;;5009803;28;21219;-51
2023/09/11 08:39:36;;;;;;;8.57;7.40;;;25.00;99.90;;;;;;5016041;28;20546;-55
2023/09/11 08:42:04;;;;;;;12.97;8.17;;;25.10;99.90;;;;;;5008820;28;20463;-52
2023/09/11 08:44:31;;;;;;;10.27;6.53;;;25.00;99.90;;;;;;5013336;28;20825;-51
2023/09/11 08:47:00;;;;;;;13.67;7.53;;;25.00;99.90;;;;;;5006037;28;20470;-55
2023/09/11 08:49:33;;;;;;;15.80;7.50;;;25.00;99.90;;;;;;5006877;28;20467;-59
2023/09/11 08:52:03;;;;;;;11.40;7.20;;;25.00;99.90;;;;;;5007848;28;20790;-54
2023/09/11 08:54:34;;;;;;;8.30;6.60;;;25.00;99.90;;;;;;5005096;28;20462;-49
2023/09/11 08:57:03;;;;;;;11.63;6.10;;;25.00;99.90;;;;;;5006869;28;20834;-49
2023/09/11 08:59:30;;;;;;;19.70;7.63;;;25.10;99.90;;;;;;5007652;28;20462;-53
2023/09/11 09:01:58;;;;;;;13.13;7.30;;;25.10;99.90;;;;;;5010599;28;21005;-51
2023/09/11 09:04:26;;;;;;;8.30;6.60;;;25.10;99.90;;;;;;5007632;28;20458;-57
2023/09/11 09:06:54;;;;;;;11.53;8.00;;;25.10;99.90;;;;;;5004946;28;20505;-48
2023/09/11 09:09:21;;;;;;;11.73;7.00;;;25.10;99.90;;;;;;5007928;28;20459;-47
2023/09/11 09:11:48;;;;;;;10.43;6.80;;;25.10;99.90;;;;;;5014432;28;20967;-54
2023/09/11 09:14:18;;;;;;;14.40;7.83;;;25.10;99.90;;;;;;5016964;28;20493;-51
2023/09/11 09:16:45;;;;;;;16.23;7.60;;;25.10;99.90;;;;;;5004316;28;20509;-47
2023/09/11 09:19:12;;;;;;;10.50;6.70;;;25.10;99.90;;;;;;5011811;28;20467;-54
2023/09/11 09:22:09;;;;;;;9.40;6.90;;;25.10;99.90;;;;;;5008277;28;20473;-53
2023/09/11 09:24:37;;;;;;;9.17;7.13;;;25.10;99.90;;;;;;5012178;28;20469;-53
2023/09/11 09:27:05;;;;;;;13.30;6.67;;;25.10;99.90;;;;;;5014577;28;20469;-50
2023/09/11 09:29:35;;;;;;;12.60;7.40;;;25.10;99.90;;;;;;5013969;28;20986;-54
2023/09/11 09:32:03;;;;;;;8.27;7.17;;;25.10;99.90;;;;;;5009432;28;20453;-53
2023/09/11 09:34:32;;;;;;;14.90;7.87;;;25.10;99.90;;;;;;5008945;28;20894;-56
2023/09/11 09:36:58;;;;;;;13.47;6.23;;;25.10;99.90;;;;;;5010152;28;20957;-47
2023/09/11 09:39:28;;;;;;;9.10;7.40;;;25.10;99.90;;;;;;5010088;28;21240;-52
2023/09/11 09:41:55;;;;;;;9.13;7.43;;;25.10;99.90;;;;;;5008914;28;20463;-51
2023/09/11 09:44:32;;;;;;;11.00;8.40;;;25.10;99.90;;;;;;5007542;28;20463;-50
2023/09/11 09:47:07;;;;;;;10.63;8.53;;;25.10;99.90;;;;;;5004940;28;21101;-51
2023/09/11 09:49:44;;;;;;;6.83;5.93;;;25.10;99.90;;;;;;5007037;28;20879;-50
2023/09/11 09:52:11;;;;;;;10.53;5.73;;;25.10;99.90;;;;;;5008672;28;20462;-50
2023/09/11 09:54:43;;;;;;;12.17;6.40;;;25.10;99.90;;;;;;5003701;28;20477;-48
2023/09/11 09:57:12;;;;;;;14.07;7.17;;;25.10;99.90;;;;;;5008204;28;21069;-50
2023/09/11 09:59:39;;;;;;;11.10;7.50;;;25.10;99.90;;;;;;5011387;28;20462;-53
2023/09/11 10:02:11;;;;;;;11.73;6.33;;;25.10;99.90;;;;;;5005876;28;20470;-56
2023/09/11 10:04:38;;;;;;;10.40;6.80;;;25.10;99.90;;;;;;5008369;28;20502;-48
2023/09/11 10:07:05;;;;;;;9.70;6.13;;;25.10;99.90;;;;;;5007790;28;20462;-57
2023/09/11 10:09:33;;;;;;;8.47;6.70;;;25.10;99.90;;;;;;5009051;28;20465;-52
2023/09/11 10:12:04;;;;;;;10.47;5.97;;;25.10;99.90;;;;;;5004498;28;20458;-48
2023/09/11 10:14:31;;;;;;;6.77;6.17;;;25.10;99.90;;;;;;5002846;28;21013;-54
2023/09/11 10:16:59;;;;;;;6.87;6.20;;;25.10;99.90;;;;;;5003974;28;20990;-51
2023/09/11 10:19:29;;;;;;;14.30;7.90;;;25.20;99.90;;;;;;5005701;28;20512;-54
2023/09/11 10:21:56;;;;;;;11.20;6.77;;;25.20;99.90;;;;;;5011761;28;20482;-49
2023/09/11 10:24:23;;;;;;;8.53;5.60;;;25.20;99.90;;;;;;5008895;28;20493;-55
2023/09/11 10:26:57;;;;;;;9.00;6.00;;;25.20;99.90;;;;;;5004014;28;20469;-58
2023/09/11 10:29:37;;;;;;;9.17;6.20;;;25.20;99.90;;;;;;5013173;28;21050;-56
2023/09/11 10:32:08;;;;;;;20.27;7.50;;;25.20;99.90;;;;;;5005394;28;21183;-52
2023/09/11 10:34:38;;;;;;;11.30;6.73;;;25.20;99.90;;;;;;5008165;28;20469;-59
2023/09/11 10:37:06;;;;;;;9.13;5.87;;;25.20;99.90;;;;;;5012182;28;20490;-54
2023/09/11 10:39:36;;;;;;;8.53;6.37;;;25.20;99.90;;;;;;5010840;28;20983;-55
2023/09/11 10:42:03;;;;;;;11.33;7.00;;;25.20;99.90;;;;;;5009028;28;20520;-54
2023/09/11 10:44:35;;;;;;;7.13;6.10;;;25.20;99.90;;;;;;5007212;28;20462;-52
2023/09/11 10:47:04;;;;;;;13.30;6.90;;;25.20;99.90;;;;;;5004897;28;20462;-49
2023/09/11 10:49:36;;;;;;;11.67;7.00;;;25.30;99.90;;;;;;5010484;28;21074;-49
2023/09/11 10:52:06;;;;;;;8.20;6.80;;;25.30;99.90;;;;;;5010783;28;20485;-56
2023/09/11 10:54:33;;;;;;;10.20;6.40;;;25.30;99.90;;;;;;5005260;28;20498;-50
2023/09/11 10:57:00;;;;;;;12.30;6.67;;;25.30;99.90;;;;;;5006911;28;20462;-49
2023/09/11 10:59:27;;;;;;;9.93;7.13;;;25.30;99.90;;;;;;5012008;28;20473;-53
2023/09/11 11:01:53;;;;;;;15.90;6.87;;;25.30;99.90;;;;;;5009989;28;20549;-54
2023/09/11 11:04:23;;;;;;;14.93;6.93;;;25.30;99.90;;;;;;5012092;28;21062;-50
2023/09/11 11:06:56;;;;;;;6.43;5.80;;;25.40;99.90;;;;;;5007072;28;20466;-59
2023/09/11 11:09:30;;;;;;;13.97;6.50;;;25.40;99.90;;;;;;5009204;28;20458;-49
2023/09/11 11:11:58;;;;;;;8.03;7.23;;;25.40;99.90;;;;;;5013817;28;20454;-52
2023/09/11 11:14:25;;;;;;;8.90;6.70;;;25.50;99.90;;;;;;5011580;28;20482;-52
2023/09/11 11:16:57;;;;;;;7.27;6.57;;;25.50;99.90;;;;;;5014059;28;20603;-51
2023/09/11 11:19:31;;;;;;;8.40;6.40;;;25.50;99.90;;;;;;5012268;28;21007;-52
2023/09/11 11:22:00;;;;;;;8.53;7.60;;;25.50;99.90;;;;;;5012735;28;20992;-51
2023/09/11 11:24:30;;;;;;;11.80;6.67;;;25.50;99.90;;;;;;5010614;28;20477;-55
2023/09/11 11:26:57;;;;;;;10.63;6.67;;;25.60;99.90;;;;;;5006872;28;20466;-57
2023/09/11 11:29:26;;;;;;;13.30;7.47;;;25.60;99.90;;;;;;5010651;28;20487;-50
2023/09/11 11:31:54;;;;;;;14.70;7.07;;;25.60;99.90;;;;;;5008218;28;20463;-51
2023/09/11 11:34:27;;;;;;;16.23;6.70;;;25.60;99.90;;;;;;5009333;28;20492;-50
2023/09/11 11:36:57;;;;;;;12.83;7.00;;;25.70;99.90;;;;;;5009727;28;20482;-54
2023/09/11 11:39:27;;;;;;;8.17;6.53;;;25.70;99.90;;;;;;5009139;28;20551;-55
2023/09/11 11:41:55;;;;;;;10.50;6.67;;;25.70;99.90;;;;;;5010901;28;20473;-53
2023/09/11 11:44:22;;;;;;;11.40;6.17;;;25.80;99.90;;;;;;5010064;28;20975;-54
2023/09/11 11:46:49;;;;;;;12.00;6.97;;;25.80;99.90;;;;;;5007078;28;20473;-56
2023/09/11 11:49:19;;;;;;;10.17;7.20;;;25.80;99.90;;;;;;5007923;28;20454;-57
2023/09/11 11:51:47;;;;;;;10.97;7.70;;;25.80;99.90;;;;;;5007345;28;20494;-53
2023/09/11 11:54:21;;;;;;;8.10;6.93;;;25.90;99.90;;;;;;5008857;28;20494;-56
2023/09/11 11:56:54;;;;;;;11.67;7.50;;;25.90;99.90;;;;;;5005399;28;21339;-54
2023/09/11 11:59:21;;;;;;;11.70;7.20;;;25.90;99.90;;;;;;5010570;28;20450;-52
2023/09/11 12:01:47;;;;;;;11.20;7.83;;;25.90;99.90;;;;;;5011390;28;20854;-55
2023/09/11 12:04:14;;;;;;;10.87;7.63;;;25.90;99.90;;;;;;5014855;28;20465;-50
2023/09/11 12:06:41;;;;;;;9.80;6.80;;;26.00;99.90;;;;;;5011680;28;20458;-49
2023/09/11 12:09:10;;;;;;;13.30;7.67;;;26.00;99.90;;;;;;5013547;28;20462;-49
2023/09/11 12:11:39;;;;;;;11.23;6.77;;;26.00;99.90;;;;;;5016459;28;20494;-52
2023/09/11 12:14:11;;;;;;;10.53;7.40;;;26.10;99.90;;;;;;5007639;28;20529;-51
2023/09/11 12:16:38;;;;;;;14.07;7.90;;;26.10;99.90;;;;;;5007879;28;20481;-54
2023/09/11 12:19:05;;;;;;;10.60;6.80;;;26.10;99.90;;;;;;5011219;28;20450;-57
2023/09/11 12:21:32;;;;;;;11.10;6.87;;;26.10;99.90;;;;;;5011282;28;20687;-52
2023/09/11 12:23:59;;;;;;;7.57;6.80;;;26.10;99.90;;;;;;5009882;28;20459;-52
2023/09/11 12:26:27;;;;;;;10.10;6.40;;;26.10;99.90;;;;;;5009838;28;20478;-55
2023/09/11 12:28:54;;;;;;;9.87;7.07;;;26.10;99.90;;;;;;5005219;28;20494;-62
2023/09/11 12:31:22;;;;;;;11.30;6.90;;;26.10;99.90;;;;;;5002905;28;20992;-53
2023/09/11 12:33:53;;;;;;;6.63;6.03;;;26.10;99.90;;;;;;5004836;28;21147;-54
2023/09/11 12:36:21;;;;;;;9.30;6.37;;;26.10;99.90;;;;;;5003946;28;20997;-54
2023/09/11 12:38:48;;;;;;;12.23;7.30;;;26.10;99.90;;;;;;5007337;28;20821;-54
2023/09/11 12:41:15;;;;;;;8.60;6.80;;;26.10;99.90;;;;;;5004884;28;20468;-50
2023/09/11 12:43:42;;;;;;;8.50;7.47;;;26.10;99.90;;;;;;5003719;28;20979;-56
2023/09/11 12:46:09;;;;;;;17.47;12.73;;;26.10;99.90;;;;;;5004829;28;20463;-54